CheckWX is a tool to help pilots better visualize weather data.  It is not intended as a substitute for an official pre-flight weather briefing.

06:54:13 UTC

KDNL TAF
Daniel Field Airport
Augusta, Georgia, USA
KDNL 241126Z 2412/2512 VRB03KT P6SM SCT200 FM242000 11006KT P6SM VCSH BKN050 FM250300 VRB04KT P6SM SCT050 BKN150

May-24@
12:00 UTC

May-24 @ 12:00 UTC

May-24@
20:00 UTC

May-24 @ 20:00 UTC

TAF KDNL 241126Z 2412/2512 VRB03KT P6SM SCT200

Expired

Wind
  • Variable at 3 KTS
Cloud Levels
  • Scattered at 20,000' AGL

May-24@
20:00 UTC

May-24 @ 20:00 UTC

May-25@
03:00 UTC

May-25 @ 03:00 UTC

FM242000 11006KT P6SM VCSH BKN050

Expired

Wind
  • 110° at 6 KTS
Conditions
Area Showers
Cloud Levels
  • Broken at 5,000' AGL

May-25@
03:00 UTC

May-25 @ 03:00 UTC

May-25@
12:00 UTC

May-25 @ 12:00 UTC

FM250300 VRB04KT P6SM SCT050 BKN150

From

From Standard forecast or significant change

Wind
  • Variable at 4 KTS
Cloud Levels
  • Scattered at 5,000' AGL
  • Broken at 15,000' AGL